createdAt,value
2019-01-09T00:00:40.375Z,980.07
2019-01-09T00:01:36.881Z,980.16
2019-01-09T00:02:36.876Z,980.16
2019-01-09T00:03:36.877Z,980.14
2019-01-09T00:04:36.875Z,980.16
2019-01-09T00:05:37.381Z,980.15
2019-01-09T00:06:40.375Z,980.19
2019-01-09T00:07:37.376Z,980.26
2019-01-09T00:08:37.375Z,980.36
2019-01-09T00:11:30.095Z,980.64
2019-01-09T00:15:15.765Z,980.62
2019-01-09T00:16:15.124Z,980.75
2019-01-09T00:17:19.264Z,980.72
2019-01-09T00:18:37.274Z,980.68
2019-01-09T00:19:16.265Z,980.67
2019-01-09T00:20:38.718Z,980.54
2019-01-09T00:21:17.698Z,980.53
2019-01-09T00:22:41.264Z,980.59
2019-01-09T00:23:40.198Z,980.54
2019-01-09T00:24:15.980Z,980.42
2019-01-09T00:25:16.764Z,980.50
2019-01-09T00:26:16.764Z,980.47
2019-01-09T00:27:17.267Z,980.44
2019-01-09T00:28:41.271Z,980.41
2019-01-09T00:29:17.263Z,980.45
2019-01-09T00:30:17.264Z,980.53
2019-01-09T00:31:38.762Z,980.47
2019-01-09T00:32:17.761Z,980.44
2019-01-09T00:33:42.262Z,980.41
2019-01-09T00:34:17.763Z,980.40
2019-01-09T00:36:49.988Z,980.37
2019-01-09T00:39:45.458Z,980.48
2019-01-09T00:40:21.463Z,980.40
2019-01-09T00:41:21.463Z,980.41
2019-01-09T00:43:53.185Z,980.41
2019-01-09T00:44:57.188Z,980.41
2019-01-09T00:45:55.189Z,980.47
2019-01-09T00:47:14.687Z,980.47
2019-01-09T00:48:14.689Z,980.49
2019-01-09T00:49:14.697Z,980.46
2019-01-09T00:49:57.194Z,980.44
2019-01-09T00:51:15.189Z,980.53
2019-01-09T00:52:14.385Z,980.45
2019-01-09T00:53:15.194Z,980.49
2019-01-09T00:53:54.190Z,980.47
2019-01-09T00:54:54.187Z,980.46
2019-01-09T00:55:58.188Z,980.47
2019-01-09T00:56:54.685Z,980.53
2019-01-09T00:57:54.692Z,980.42
2019-01-09T00:59:15.688Z,980.51
2019-01-09T00:59:54.279Z,980.46
2019-01-09T01:00:55.187Z,980.46
2019-01-09T01:01:58.187Z,980.52
2019-01-09T01:02:55.195Z,980.49
2019-01-09T01:04:09.688Z,980.53
2019-01-09T01:04:55.687Z,980.43
2019-01-09T01:05:55.690Z,980.50
2019-01-09T01:08:30.897Z,980.45
2019-01-09T01:09:30.913Z,980.45
2019-01-09T01:10:34.339Z,980.45
2019-01-09T01:14:37.962Z,980.51
2019-01-09T01:15:37.963Z,980.40
2019-01-09T01:16:38.464Z,980.45
2019-01-09T01:17:38.466Z,980.46
2019-01-09T01:18:41.968Z,980.44
2019-01-09T01:19:38.468Z,980.42
2019-01-09T01:20:39.070Z,980.39
2019-01-09T01:21:38.964Z,980.43
2019-01-09T01:22:41.899Z,980.42
2019-01-09T01:23:42.463Z,980.46
2019-01-09T01:24:45.399Z,980.42
2019-01-09T01:26:00.463Z,980.54
2019-01-09T01:26:39.463Z,980.52
2019-01-09T01:27:39.463Z,980.51
2019-01-09T01:28:43.463Z,980.56
2019-01-09T01:29:39.966Z,980.56
2019-01-09T01:30:39.963Z,980.56
2019-01-09T01:31:39.967Z,980.58
2019-01-09T01:34:15.184Z,980.59
2019-01-09T01:35:14.125Z,980.51
2019-01-09T01:37:43.410Z,980.58
2019-01-09T01:39:04.412Z,980.53
2019-01-09T01:41:19.605Z,980.51
2019-01-09T01:42:40.639Z,980.58
2019-01-09T01:43:19.613Z,980.54
2019-01-09T01:44:20.113Z,980.52
2019-01-09T01:45:23.616Z,980.54
2019-01-09T01:46:24.550Z,980.51
2019-01-09T01:47:41.120Z,980.55
2019-01-09T01:48:41.613Z,980.52
2019-01-09T01:49:22.613Z,980.53
2019-01-09T01:50:25.548Z,980.53
2019-01-09T01:51:20.625Z,980.52
2019-01-09T01:52:41.616Z,980.52
2019-01-09T01:53:21.112Z,980.49
2019-01-09T01:54:42.112Z,980.52
2019-01-09T01:55:21.115Z,980.58
2019-01-09T01:56:24.614Z,980.53
2019-01-09T01:57:24.048Z,980.53
2019-01-09T02:01:48.426Z,980.57
2019-01-09T02:02:24.435Z,980.61
2019-01-09T02:03:24.428Z,980.57
2019-01-09T02:04:24.928Z,980.58
2019-01-09T02:06:59.279Z,980.57
2019-01-09T02:07:56.280Z,980.55
2019-01-09T02:08:58.213Z,980.57
2019-01-09T02:09:56.780Z,980.62
2019-01-09T02:10:56.779Z,980.53
2019-01-09T02:12:00.285Z,980.56
2019-01-09T02:12:57.279Z,980.51
2019-01-09T02:14:03.280Z,980.66
2019-01-09T02:14:57.283Z,980.74
2019-01-09T02:15:57.278Z,980.50
2019-01-09T02:18:34.138Z,980.65
2019-01-09T02:19:33.014Z,980.81
2019-01-09T02:20:33.509Z,980.72
2019-01-09T02:24:40.121Z,980.87
2019-01-09T02:25:41.088Z,980.93
2019-01-09T02:26:40.630Z,980.84
2019-01-09T02:29:15.861Z,980.79
2019-01-09T02:31:43.332Z,980.93
2019-01-09T02:32:43.343Z,980.86
2019-01-09T02:33:43.337Z,980.86
2019-01-09T02:35:08.348Z,980.89
2019-01-09T02:37:39.140Z,981.02
2019-01-09T02:38:15.212Z,981.04
2019-01-09T02:39:38.176Z,981.01
2019-01-09T02:40:40.201Z,981.01
2019-01-09T02:41:15.719Z,980.97
2019-01-09T02:42:36.713Z,980.99
2019-01-09T02:43:16.202Z,981.02
2019-01-09T02:44:16.203Z,980.96
2019-01-09T02:45:20.199Z,980.98
2019-01-09T02:46:16.207Z,980.95
2019-01-09T02:47:37.732Z,980.98
2019-01-09T02:48:37.701Z,980.92
2019-01-09T02:49:16.701Z,980.90
2019-01-09T02:50:16.702Z,980.92
2019-01-09T02:51:41.202Z,980.93
2019-01-09T02:52:17.207Z,980.90
2019-01-09T02:53:38.207Z,980.93
2019-01-09T02:54:16.681Z,980.94
2019-01-09T02:55:40.328Z,980.87
2019-01-09T02:56:21.696Z,980.91
2019-01-09T02:57:17.710Z,980.90
2019-01-09T02:58:17.706Z,980.84
2019-01-09T03:00:49.437Z,980.76
2019-01-09T03:02:13.947Z,980.77
2019-01-09T03:03:10.945Z,980.84
2019-01-09T03:03:49.941Z,980.68
2019-01-09T03:06:23.057Z,980.80
2019-01-09T03:07:25.423Z,980.86
2019-01-09T03:08:21.917Z,980.78
2019-01-09T03:10:53.644Z,980.89
2019-01-09T03:11:53.645Z,980.72
2019-01-09T03:12:57.149Z,980.86
2019-01-09T03:13:54.184Z,980.80
2019-01-09T03:14:54.143Z,980.81
2019-01-09T03:15:54.142Z,980.82
2019-01-09T03:16:54.141Z,980.79
2019-01-09T03:17:58.152Z,980.78
2019-01-09T03:18:54.642Z,980.81
2019-01-09T03:19:54.642Z,980.79
2019-01-09T03:20:54.645Z,980.73
2019-01-09T03:21:55.145Z,980.71
2019-01-09T03:24:31.262Z,980.70
2019-01-09T03:25:29.814Z,980.72
2019-01-09T03:26:29.813Z,980.74
2019-01-09T03:27:30.310Z,980.69
2019-01-09T03:28:33.813Z,980.67
2019-01-09T03:31:01.797Z,980.68
2019-01-09T03:32:01.803Z,980.63
2019-01-09T03:34:38.016Z,980.67
2019-01-09T03:35:34.994Z,980.67
2019-01-09T03:36:36.026Z,980.63
2019-01-09T03:37:34.026Z,980.63
2019-01-09T03:40:29.497Z,980.62
2019-01-09T03:41:05.502Z,980.58
2019-01-09T03:42:05.505Z,980.58
2019-01-09T03:44:37.218Z,980.53
2019-01-09T03:45:41.225Z,980.53
2019-01-09T03:46:37.728Z,980.57
2019-01-09T03:47:37.733Z,980.67
2019-01-09T03:48:39.199Z,980.68
2019-01-09T03:49:37.727Z,980.72
2019-01-09T03:50:41.226Z,980.77
2019-01-09T03:51:59.226Z,980.80
2019-01-09T03:52:38.221Z,980.83
2019-01-09T03:53:38.228Z,980.74
2019-01-09T03:54:38.725Z,980.76
2019-01-09T03:56:03.725Z,980.72
2019-01-09T03:56:38.724Z,980.69
2019-01-09T03:57:38.735Z,980.65
2019-01-09T03:58:39.229Z,980.62
2019-01-09T04:00:02.198Z,980.69
2019-01-09T04:00:39.224Z,980.56
2019-01-09T04:02:03.724Z,980.59
2019-01-09T04:02:40.694Z,980.60
2019-01-09T04:03:39.745Z,980.60
2019-01-09T04:04:39.724Z,980.63
2019-01-09T04:05:39.729Z,980.61
2019-01-09T04:08:15.121Z,980.56
2019-01-09T04:09:15.095Z,980.66
2019-01-09T04:10:15.095Z,980.58
2019-01-09T04:11:15.593Z,980.58
2019-01-09T04:12:40.124Z,980.63
2019-01-09T04:13:15.599Z,980.58
2019-01-09T04:14:15.591Z,980.55
2019-01-09T04:15:16.091Z,980.65
2019-01-09T04:16:16.091Z,980.60
2019-01-09T04:17:16.092Z,980.63
2019-01-09T04:18:41.091Z,980.57
2019-01-09T04:19:16.602Z,980.62
2019-01-09T04:20:17.528Z,980.62
2019-01-09T04:21:15.923Z,980.58
2019-01-09T04:22:16.591Z,980.59
2019-01-09T04:23:16.591Z,980.69
2019-01-09T04:24:40.088Z,980.62
2019-01-09T04:25:17.091Z,980.61
2019-01-09T04:26:41.027Z,980.62
2019-01-09T04:27:17.154Z,980.67
2019-01-09T04:28:17.588Z,980.66
2019-01-09T04:30:54.875Z,980.57
2019-01-09T04:32:13.890Z,980.64
2019-01-09T04:33:13.949Z,980.57
2019-01-09T04:35:30.618Z,980.57
2019-01-09T04:36:51.306Z,980.64
2019-01-09T04:37:24.612Z,980.65
2019-01-09T04:38:25.117Z,980.59
2019-01-09T04:39:25.113Z,980.66
2019-01-09T04:40:50.118Z,980.72
2019-01-09T04:41:25.132Z,980.62
2019-01-09T04:42:27.066Z,980.76
2019-01-09T04:43:25.610Z,980.61
2019-01-09T04:46:21.487Z,980.62
2019-01-09T04:47:20.463Z,980.71
2019-01-09T04:51:25.251Z,980.76
2019-01-09T04:52:00.293Z,980.70
2019-01-09T04:53:21.796Z,980.68
2019-01-09T04:55:34.584Z,980.67
2019-01-09T04:56:36.149Z,980.73
2019-01-09T04:57:53.649Z,980.75
2019-01-09T05:00:04.000Z,980.70
2019-01-09T05:01:03.341Z,980.77
2019-01-09T05:02:07.509Z,980.81
2019-01-09T05:03:04.010Z,980.74
2019-01-09T05:04:10.515Z,980.72
2019-01-09T05:06:35.882Z,980.66
2019-01-09T05:07:39.366Z,980.75
2019-01-09T05:08:35.874Z,980.73
2019-01-09T05:14:14.304Z,980.69
2019-01-09T05:15:35.318Z,980.73
2019-01-09T05:16:14.312Z,980.66
2019-01-09T05:17:14.813Z,980.74
2019-01-09T05:18:38.814Z,980.71
2019-01-09T05:19:14.813Z,980.82
2019-01-09T05:20:14.811Z,980.80
2019-01-09T05:21:15.314Z,980.73
2019-01-09T05:22:15.317Z,980.79
2019-01-09T05:23:19.313Z,980.80
2019-01-09T05:24:15.312Z,980.82
2019-01-09T05:25:15.811Z,980.77
2019-01-09T05:26:15.811Z,980.87
2019-01-09T05:27:15.858Z,980.79
2019-01-09T05:28:40.312Z,980.83
2019-01-09T05:29:15.811Z,980.76
2019-01-09T05:30:16.311Z,980.77
2019-01-09T05:31:16.311Z,980.79
2019-01-09T05:32:16.307Z,980.79
2019-01-09T05:33:41.317Z,980.83
2019-01-09T05:36:09.038Z,980.85
2019-01-09T05:36:48.062Z,980.82
2019-01-09T05:37:48.043Z,980.84
2019-01-09T05:38:53.500Z,980.91
2019-01-09T05:39:48.543Z,980.80
2019-01-09T05:40:48.543Z,980.89
2019-01-09T05:41:48.566Z,980.83
2019-01-09T05:44:23.638Z,980.95
2019-01-09T05:47:26.606Z,980.84
2019-01-09T05:49:27.093Z,980.91
2019-01-09T05:50:23.100Z,980.79
2019-01-09T05:51:24.569Z,980.92
2019-01-09T05:52:44.606Z,980.95
2019-01-09T05:54:58.317Z,980.96
2019-01-09T05:55:55.760Z,981.00
2019-01-09T05:56:54.832Z,980.93
2019-01-09T05:58:16.325Z,980.97
2019-01-09T06:00:36.176Z,980.99
2019-01-09T06:01:26.684Z,980.98
2019-01-09T06:02:47.689Z,980.97
2019-01-09T06:03:27.187Z,981.00
2019-01-09T06:04:27.200Z,980.96
2019-01-09T06:05:31.181Z,981.08
2019-01-09T06:06:27.195Z,981.05
2019-01-09T06:07:41.686Z,981.03
2019-01-09T06:09:59.531Z,981.06
2019-01-09T06:11:23.542Z,981.08
2019-01-09T06:11:59.548Z,981.11
2019-01-09T06:12:59.541Z,981.04
2019-01-09T06:14:22.512Z,981.03
2019-01-09T06:15:00.043Z,981.07
2019-01-09T06:17:36.814Z,981.11
2019-01-09T06:18:35.402Z,981.10
2019-01-09T06:19:36.837Z,981.14
2019-01-09T06:22:11.054Z,981.13
2019-01-09T06:23:08.002Z,981.16
2019-01-09T06:24:07.995Z,981.08
2019-01-09T06:25:29.021Z,981.08
2019-01-09T06:26:07.562Z,981.20
2019-01-09T06:27:07.561Z,981.22
2019-01-09T06:28:11.066Z,981.18
2019-01-09T06:29:29.996Z,981.12
2019-01-09T06:31:39.268Z,981.20
2019-01-09T06:32:39.261Z,981.26
2019-01-09T06:33:43.771Z,981.20
2019-01-09T06:34:39.762Z,981.20
2019-01-09T06:35:39.774Z,981.21
2019-01-09T06:36:39.762Z,981.22
2019-01-09T06:37:40.262Z,981.20
2019-01-09T06:38:40.262Z,981.29
2019-01-09T06:39:43.761Z,981.23
2019-01-09T06:40:40.261Z,981.29
2019-01-09T06:44:47.063Z,981.41
2019-01-09T06:45:43.714Z,981.27
2019-01-09T06:46:43.721Z,981.27
2019-01-09T06:48:05.214Z,981.35
2019-01-09T06:48:43.432Z,981.34
2019-01-09T06:51:19.664Z,981.47
2019-01-09T06:52:40.667Z,981.53
2019-01-09T06:53:19.747Z,981.46
2019-01-09T06:54:40.256Z,981.45
2019-01-09T06:55:37.703Z,981.61
2019-01-09T06:56:20.175Z,981.55
2019-01-09T06:57:20.167Z,981.59
2019-01-09T06:58:41.168Z,981.54
2019-01-09T07:02:26.570Z,981.82
2019-01-09T07:03:26.580Z,981.58
2019-01-09T07:04:26.592Z,981.76
2019-01-09T07:05:26.159Z,981.71
2019-01-09T07:06:30.573Z,981.73
2019-01-09T07:07:35.815Z,981.77
2019-01-09T07:08:28.510Z,981.72
2019-01-09T07:09:27.076Z,981.74
2019-01-09T07:11:02.575Z,981.74
2019-01-09T07:11:31.242Z,981.73
2019-01-09T07:12:27.578Z,981.80
2019-01-09T07:13:27.576Z,981.78
2019-01-09T07:14:48.139Z,981.82
2019-01-09T07:17:02.373Z,981.85
2019-01-09T07:17:59.371Z,981.83
2019-01-09T07:18:59.371Z,981.83
2019-01-09T07:21:33.094Z,981.86
2019-01-09T07:22:35.098Z,981.86
2019-01-09T07:23:31.102Z,981.84
2019-01-09T07:24:31.602Z,981.87
2019-01-09T07:25:31.656Z,981.87
2019-01-09T07:26:30.945Z,981.89
2019-01-09T07:27:31.595Z,981.91
2019-01-09T07:28:35.094Z,981.87
2019-01-09T07:31:24.318Z,981.91
2019-01-09T07:32:24.323Z,981.96
2019-01-09T07:33:03.347Z,981.90
2019-01-09T07:34:41.819Z,981.95
2019-01-09T07:35:03.826Z,981.92
2019-01-09T07:36:04.754Z,981.91
2019-01-09T07:37:03.819Z,981.97
2019-01-09T07:38:04.319Z,981.91
2019-01-09T07:39:09.819Z,981.93
2019-01-09T07:40:05.278Z,981.95
2019-01-09T07:41:18.319Z,981.93
2019-01-09T07:42:04.323Z,981.91
2019-01-09T07:44:39.531Z,981.98
2019-01-09T07:47:13.443Z,982.03
2019-01-09T07:48:07.510Z,981.95
2019-01-09T07:49:06.971Z,981.97
2019-01-09T07:50:11.008Z,982.03
2019-01-09T07:51:31.003Z,982.04
2019-01-09T07:52:29.008Z,982.04
2019-01-09T07:53:29.016Z,982.05
2019-01-09T07:54:07.568Z,982.05
2019-01-09T07:55:12.003Z,982.06
2019-01-09T07:58:00.885Z,982.08
2019-01-09T07:58:39.869Z,982.03
2019-01-09T07:59:39.862Z,982.04
2019-01-09T08:00:49.901Z,982.09
2019-01-09T08:01:40.364Z,982.06
2019-01-09T08:03:03.361Z,982.05
2019-01-09T08:03:40.361Z,982.08
2019-01-09T08:04:40.367Z,982.02
2019-01-09T08:07:15.663Z,982.04
2019-01-09T08:08:15.672Z,982.11
2019-01-09T08:09:15.682Z,982.03
2019-01-09T08:10:17.644Z,982.05
2019-01-09T08:11:19.675Z,982.02
2019-01-09T08:12:16.204Z,982.05
2019-01-09T08:14:47.077Z,982.14
2019-01-09T08:15:53.799Z,982.04
2019-01-09T08:16:51.299Z,982.09
2019-01-09T08:17:48.306Z,982.10
2019-01-09T08:18:49.740Z,982.15
2019-01-09T08:19:47.677Z,982.16
2019-01-09T08:20:49.753Z,982.06
2019-01-09T08:21:52.300Z,982.10
2019-01-09T08:24:40.265Z,982.13
2019-01-09T08:25:20.022Z,982.18
2019-01-09T08:26:20.021Z,982.11
2019-01-09T08:27:45.024Z,982.10
2019-01-09T08:28:41.525Z,982.23
2019-01-09T08:29:21.970Z,982.25
2019-01-09T08:30:20.521Z,982.25
2019-01-09T08:31:20.521Z,982.26
2019-01-09T08:33:55.809Z,982.44
2019-01-09T08:34:55.816Z,982.31
2019-01-09T08:35:55.816Z,982.37
2019-01-09T08:37:10.317Z,982.37
2019-01-09T08:38:02.961Z,982.39
2019-01-09T08:38:56.332Z,982.40
2019-01-09T08:39:56.321Z,982.35
2019-01-09T08:42:30.043Z,982.54
2019-01-09T08:43:51.054Z,982.35
2019-01-09T08:44:28.052Z,982.46
2019-01-09T08:47:02.212Z,982.55
2019-01-09T08:48:00.277Z,982.52
2019-01-09T08:49:05.785Z,982.54
2019-01-09T08:49:59.753Z,982.60
2019-01-09T08:51:00.787Z,982.71
2019-01-09T08:53:32.127Z,982.70
2019-01-09T08:59:10.266Z,982.74
2019-01-09T09:00:16.261Z,982.76
2019-01-09T09:01:10.277Z,982.79
2019-01-09T09:02:10.761Z,982.69
2019-01-09T09:04:42.113Z,982.73
2019-01-09T09:05:45.613Z,982.73
2019-01-09T09:08:13.846Z,982.75
2019-01-09T09:09:15.312Z,982.81
2019-01-09T09:10:34.838Z,982.85
2019-01-09T09:11:16.622Z,982.90
2019-01-09T09:12:34.444Z,982.90
2019-01-09T09:13:14.357Z,982.91
2019-01-09T09:14:20.338Z,982.85
2019-01-09T09:15:15.277Z,982.77
2019-01-09T09:16:41.343Z,982.87
2019-01-09T09:17:14.356Z,982.89
2019-01-09T09:19:46.052Z,982.80
2019-01-09T09:22:20.783Z,982.93
2019-01-09T09:23:38.536Z,982.83
2019-01-09T09:24:18.463Z,982.83
2019-01-09T09:30:16.945Z,982.96
2019-01-09T09:30:55.954Z,982.97
2019-01-09T09:31:55.961Z,983.03
2019-01-09T09:33:13.888Z,983.03
2019-01-09T09:34:20.956Z,983.05
2019-01-09T09:36:27.937Z,983.00
2019-01-09T09:37:27.937Z,983.04
2019-01-09T09:38:27.947Z,983.02
2019-01-09T09:39:52.046Z,983.04
2019-01-09T09:40:29.874Z,983.10
2019-01-09T09:42:59.818Z,983.07
2019-01-09T09:43:59.817Z,983.01
2019-01-09T09:46:34.806Z,983.08
2019-01-09T09:47:56.745Z,982.96
2019-01-09T09:48:34.898Z,982.95
2019-01-09T09:49:56.309Z,982.91
2019-01-09T09:50:39.309Z,982.94
2019-01-09T09:51:35.315Z,982.97
2019-01-09T09:52:35.316Z,982.97
2019-01-09T09:56:41.971Z,983.09
2019-01-09T09:57:38.478Z,983.00
2019-01-09T09:58:38.474Z,983.03
2019-01-09T09:59:43.679Z,983.02
2019-01-09T10:00:44.996Z,983.06
2019-01-09T10:01:40.977Z,983.00
2019-01-09T10:02:41.984Z,983.02
2019-01-09T10:03:59.980Z,983.05
2019-01-09T10:04:41.481Z,983.09
2019-01-09T10:05:39.479Z,983.09
2019-01-09T10:06:53.485Z,983.10
2019-01-09T10:08:18.502Z,983.16
2019-01-09T10:10:11.201Z,983.14
2019-01-09T10:11:11.208Z,983.12
2019-01-09T10:12:11.209Z,983.15
2019-01-09T10:13:14.716Z,983.21
2019-01-09T10:14:10.924Z,983.26
2019-01-09T10:15:14.167Z,983.18
2019-01-09T10:16:11.707Z,983.16
2019-01-09T10:17:11.708Z,983.21
2019-01-09T10:19:47.454Z,983.22
2019-01-09T10:20:46.793Z,983.25
2019-01-09T10:23:28.518Z,983.17
2019-01-09T10:24:19.020Z,983.27
2019-01-09T10:25:24.454Z,983.25
2019-01-09T10:26:18.606Z,983.24
2019-01-09T10:28:54.819Z,983.21
2019-01-09T10:29:50.825Z,983.30
2019-01-09T10:30:50.830Z,983.35
2019-01-09T10:36:31.292Z,983.37
2019-01-09T10:37:50.299Z,983.38
2019-01-09T10:38:50.802Z,983.36
2019-01-09T10:39:50.813Z,983.43
2019-01-09T10:40:54.298Z,983.41
2019-01-09T10:41:29.798Z,983.39
2019-01-09T10:44:02.964Z,983.45
2019-01-09T10:45:04.460Z,983.48
2019-01-09T10:46:05.025Z,983.52
2019-01-09T10:47:16.024Z,983.55
2019-01-09T10:49:32.808Z,983.53
2019-01-09T10:50:32.885Z,983.64
2019-01-09T10:51:42.952Z,983.57
2019-01-09T10:54:04.542Z,983.54
2019-01-09T10:55:05.237Z,983.57
2019-01-09T10:56:05.244Z,983.55
2019-01-09T10:58:39.698Z,983.52
2019-01-09T10:59:39.707Z,983.56
2019-01-09T11:00:54.220Z,983.49
2019-01-09T11:01:39.448Z,983.52
2019-01-09T11:02:43.712Z,983.52
2019-01-09T11:03:41.659Z,983.55
2019-01-09T11:04:40.704Z,983.56
2019-01-09T11:05:46.704Z,983.61
2019-01-09T11:06:41.639Z,983.55
2019-01-09T11:07:40.708Z,983.62
2019-01-09T11:09:05.700Z,983.57
2019-01-09T11:09:40.309Z,983.56
2019-01-09T11:13:46.889Z,983.67
2019-01-09T11:14:43.951Z,983.57
2019-01-09T11:15:43.962Z,983.56
2019-01-09T11:20:11.362Z,983.56
2019-01-09T11:20:47.110Z,983.52
2019-01-09T11:21:47.113Z,983.49
2019-01-09T11:22:47.610Z,983.57
2019-01-09T11:23:47.609Z,983.59
2019-01-09T11:24:47.608Z,983.60
2019-01-09T11:27:42.759Z,983.48
2019-01-09T11:28:31.943Z,983.51
2019-01-09T11:29:22.510Z,983.57
2019-01-09T11:30:22.099Z,983.44
2019-01-09T11:31:47.002Z,983.48
2019-01-09T11:32:22.348Z,983.47
2019-01-09T11:33:44.002Z,983.44
2019-01-09T11:34:23.001Z,983.43
2019-01-09T11:37:18.242Z,983.49
2019-01-09T11:37:54.732Z,983.44
2019-01-09T11:39:00.163Z,983.44
2019-01-09T11:41:26.231Z,983.52
2019-01-09T11:42:32.406Z,983.47
2019-01-09T11:43:26.963Z,983.46
2019-01-09T11:44:26.962Z,983.48
2019-01-09T11:45:27.460Z,983.37
2019-01-09T11:48:01.813Z,983.46
2019-01-09T11:50:30.686Z,983.41
2019-01-09T11:51:51.674Z,983.47
2019-01-09T11:52:30.665Z,983.45
2019-01-09T11:55:05.532Z,983.41
2019-01-09T11:56:26.541Z,983.48
2019-01-09T11:57:05.539Z,983.45
2019-01-09T11:58:20.044Z,983.45
2019-01-09T11:59:10.049Z,983.50
2019-01-09T12:00:05.374Z,983.42
2019-01-09T12:01:27.076Z,983.48
2019-01-09T12:02:12.039Z,983.44
2019-01-09T12:03:08.545Z,983.49
2019-01-09T12:04:07.978Z,983.47
2019-01-09T12:05:12.039Z,983.42
2019-01-09T12:06:05.877Z,983.51
2019-01-09T12:07:06.538Z,983.40
2019-01-09T12:08:09.476Z,983.42
2019-01-09T12:10:42.702Z,983.48
2019-01-09T12:11:38.263Z,983.51
2019-01-09T12:12:38.772Z,983.62
2019-01-09T12:13:59.776Z,983.54
2019-01-09T12:14:38.765Z,983.56
2019-01-09T12:16:07.957Z,983.55
2019-01-09T12:18:09.798Z,983.63
2019-01-09T12:19:10.514Z,983.64
2019-01-09T12:20:10.514Z,983.63
2019-01-09T12:21:36.012Z,983.62
2019-01-09T12:22:11.018Z,983.65
2019-01-09T12:23:14.948Z,983.63
2019-01-09T12:24:10.494Z,983.66
2019-01-09T12:27:07.727Z,983.63
2019-01-09T12:29:14.214Z,983.73
2019-01-09T12:30:41.239Z,983.72
2019-01-09T12:34:48.158Z,983.74
2019-01-09T12:35:42.155Z,983.76
2019-01-09T12:36:42.144Z,983.77
2019-01-09T12:39:17.870Z,983.75
2019-01-09T12:39:52.876Z,983.82
2019-01-09T12:41:13.877Z,983.74
2019-01-09T12:42:14.376Z,983.80
2019-01-09T12:44:28.224Z,983.72
2019-01-09T12:45:47.210Z,983.69
2019-01-09T12:46:45.735Z,983.74
2019-01-09T12:47:25.241Z,983.70
2019-01-09T12:48:25.234Z,983.65
2019-01-09T12:49:25.236Z,983.69
2019-01-09T12:50:50.234Z,983.74
2019-01-09T12:52:56.956Z,983.75
2019-01-09T12:53:56.964Z,983.81
2019-01-09T12:56:32.558Z,983.84
2019-01-09T12:57:28.565Z,983.83
2019-01-09T12:59:59.592Z,983.92
2019-01-09T13:01:14.292Z,983.96
2019-01-09T13:02:31.292Z,983.95
2019-01-09T13:04:31.329Z,983.99
2019-01-09T13:07:28.545Z,983.96
2019-01-09T13:08:17.551Z,984.00
2019-01-09T13:09:03.550Z,984.09
2019-01-09T13:10:39.065Z,984.06
2019-01-09T13:11:31.046Z,983.92
2019-01-09T13:13:40.314Z,984.09
2019-01-09T13:14:40.329Z,984.02
2019-01-09T13:15:53.373Z,984.08
2019-01-09T13:17:00.375Z,984.07
2019-01-09T13:18:05.484Z,984.10
2019-01-09T13:18:39.376Z,984.20
2019-01-09T13:19:39.415Z,984.16
2019-01-09T13:20:39.876Z,984.13
2019-01-09T13:23:14.729Z,984.17
2019-01-09T13:25:44.130Z,984.21
2019-01-09T13:28:17.865Z,984.21
2019-01-09T13:36:55.351Z,984.28
2019-01-09T13:37:55.343Z,984.30
2019-01-09T13:40:36.619Z,984.28
2019-01-09T13:41:30.174Z,984.26
2019-01-09T13:44:04.317Z,984.24
2019-01-09T13:45:01.904Z,984.28
2019-01-09T13:46:22.910Z,984.28
2019-01-09T13:56:18.044Z,984.34
2019-01-09T13:57:15.035Z,984.35
2019-01-09T13:58:15.042Z,984.37
2019-01-09T14:00:52.760Z,984.43
2019-01-09T14:01:50.072Z,984.48
2019-01-09T14:02:56.285Z,984.48
2019-01-09T14:03:46.774Z,984.43
2019-01-09T14:04:47.267Z,984.46
2019-01-09T14:05:47.267Z,984.50
2019-01-09T14:06:47.267Z,984.48
2019-01-09T14:08:04.769Z,984.42
2019-01-09T14:08:47.787Z,984.51
2019-01-09T14:10:08.766Z,984.53
2019-01-09T14:10:49.223Z,984.59
2019-01-09T14:11:54.201Z,984.52
2019-01-09T14:12:51.771Z,984.52
2019-01-09T14:14:15.271Z,984.49
2019-01-09T14:14:47.492Z,984.52
2019-01-09T14:15:48.275Z,984.58
2019-01-09T14:16:48.269Z,984.55
2019-01-09T14:17:48.790Z,984.57
2019-01-09T14:18:55.391Z,984.63
2019-01-09T14:19:48.880Z,984.61
2019-01-09T14:20:48.199Z,984.57
2019-01-09T14:21:50.701Z,984.64
2019-01-09T14:23:13.200Z,984.65
2019-01-09T14:23:59.269Z,984.69
2019-01-09T14:24:49.265Z,984.63
2019-01-09T14:25:49.285Z,984.66
2019-01-09T14:28:20.984Z,984.73
2019-01-09T14:29:47.491Z,984.80
2019-01-09T14:30:20.991Z,984.73
2019-01-09T14:31:42.491Z,984.75
2019-01-09T14:33:52.841Z,984.79
2019-01-09T14:38:26.856Z,984.82
2019-01-09T14:38:59.859Z,984.79
2019-01-09T14:40:17.374Z,984.85
2019-01-09T14:40:59.860Z,984.87
2019-01-09T14:42:00.360Z,984.82
2019-01-09T14:43:00.361Z,984.88
2019-01-09T14:44:21.362Z,985.00
2019-01-09T14:45:00.378Z,984.91
2019-01-09T14:46:03.738Z,984.89
2019-01-09T14:47:00.863Z,984.94
2019-01-09T14:48:00.869Z,984.98
2019-01-09T14:49:00.880Z,985.02
2019-01-09T14:50:01.363Z,985.00
2019-01-09T14:52:57.849Z,985.03
2019-01-09T14:53:36.363Z,984.92
2019-01-09T14:56:10.011Z,985.04
2019-01-09T14:57:10.974Z,985.06
2019-01-09T14:58:08.564Z,985.05
2019-01-09T15:00:08.581Z,985.06
2019-01-09T15:01:23.077Z,985.13
2019-01-09T15:02:12.120Z,985.10
2019-01-09T15:04:45.968Z,985.11
2019-01-09T15:05:45.494Z,985.15
2019-01-09T15:07:00.907Z,985.13
2019-01-09T15:08:06.929Z,985.18
2019-01-09T15:08:40.973Z,985.15
2019-01-09T15:09:40.971Z,985.17
2019-01-09T15:10:40.973Z,985.22
2019-01-09T15:13:16.215Z,985.24
2019-01-09T15:14:12.698Z,985.20
2019-01-09T15:15:33.696Z,985.19
2019-01-09T15:17:44.423Z,985.22
2019-01-09T15:18:48.885Z,985.25
2019-01-09T15:19:44.444Z,985.26
2019-01-09T15:20:44.428Z,985.30
2019-01-09T15:23:16.147Z,985.33
2019-01-09T15:24:41.154Z,985.34
2019-01-09T15:25:16.200Z,985.37
2019-01-09T15:26:37.157Z,985.39
2019-01-09T15:27:37.653Z,985.35
2019-01-09T15:28:16.660Z,985.35
2019-01-09T15:29:16.649Z,985.40
2019-01-09T15:30:23.141Z,985.40
2019-01-09T15:31:17.157Z,985.36
2019-01-09T15:32:17.159Z,985.43
2019-01-09T15:33:38.173Z,985.38
2019-01-09T15:34:17.152Z,985.38
2019-01-09T15:35:25.087Z,985.33
2019-01-09T15:36:19.653Z,985.55
2019-01-09T15:37:17.677Z,985.43
2019-01-09T15:38:17.657Z,985.44
2019-01-09T15:39:41.166Z,985.38
2019-01-09T15:40:48.670Z,985.44
2019-01-09T15:42:49.654Z,985.42
2019-01-09T15:43:49.658Z,985.52
2019-01-09T15:44:49.662Z,985.54
2019-01-09T15:45:53.173Z,985.52
2019-01-09T15:48:41.765Z,985.52
2019-01-09T15:49:56.512Z,985.55
2019-01-09T15:50:21.515Z,985.57
2019-01-09T15:51:25.510Z,985.58
2019-01-09T15:55:24.807Z,985.59
2019-01-09T15:56:28.787Z,985.65
2019-01-09T15:57:24.785Z,985.68
2019-01-09T16:00:03.020Z,985.70
2019-01-09T16:00:56.513Z,985.69
2019-01-09T16:02:00.619Z,985.73
2019-01-09T16:03:19.979Z,985.71
2019-01-09T16:04:11.010Z,985.73
2019-01-09T16:04:59.009Z,985.73
2019-01-09T16:05:57.008Z,985.78
2019-01-09T16:07:22.015Z,985.81
2019-01-09T16:07:57.574Z,985.76
2019-01-09T16:09:18.522Z,985.73
2019-01-09T16:09:57.529Z,985.72
2019-01-09T16:11:19.012Z,985.74
2019-01-09T16:11:59.474Z,985.80
2019-01-09T16:13:03.441Z,985.77
2019-01-09T16:13:58.007Z,985.80
2019-01-09T16:18:04.679Z,985.85
2019-01-09T16:19:01.163Z,985.94
2019-01-09T16:20:01.164Z,985.82
2019-01-09T16:24:07.837Z,985.89
2019-01-09T16:25:04.821Z,985.86
2019-01-09T16:26:07.751Z,985.84
2019-01-09T16:27:04.476Z,985.90
2019-01-09T16:28:06.382Z,985.93
2019-01-09T16:29:29.813Z,985.97